createdAt,value
2023-03-22T00:01:16.793Z,7.82
2023-03-22T00:03:44.375Z,7.80
2023-03-22T00:06:11.182Z,7.85
2023-03-22T00:08:39.610Z,7.62
2023-03-22T00:11:06.834Z,7.88
2023-03-22T00:13:35.724Z,7.95
2023-03-22T00:16:02.493Z,7.90
2023-03-22T00:18:30.056Z,7.63
2023-03-22T00:20:58.909Z,7.91
2023-03-22T00:23:26.075Z,7.84
2023-03-22T00:25:52.758Z,7.95
2023-03-22T00:28:19.784Z,7.97
2023-03-22T00:30:59.401Z,8.02
2023-03-22T00:33:26.675Z,7.93
2023-03-22T00:35:57.660Z,8.00
2023-03-22T00:38:39.467Z,8.11
2023-03-22T00:41:10.516Z,7.71
2023-03-22T00:43:37.676Z,7.96
2023-03-22T00:46:05.105Z,8.21
2023-03-22T00:48:31.710Z,7.91
2023-03-22T00:50:58.403Z,8.25
2023-03-22T00:53:25.052Z,8.11
2023-03-22T00:55:51.969Z,8.30
2023-03-22T00:58:18.431Z,8.44
2023-03-22T01:00:44.994Z,8.38
2023-03-22T01:03:11.718Z,8.55
2023-03-22T01:05:38.261Z,8.60
2023-03-22T01:08:05.978Z,8.60
2023-03-22T01:10:32.518Z,8.61
2023-03-22T01:12:59.028Z,8.64
2023-03-22T01:15:25.465Z,8.61
2023-03-22T01:17:52.236Z,8.61
2023-03-22T01:20:19.072Z,8.67
2023-03-22T01:22:45.636Z,8.70
2023-03-22T01:25:12.160Z,8.69
2023-03-22T01:27:38.938Z,8.59
2023-03-22T01:30:06.712Z,8.86
2023-03-22T01:36:01.558Z,8.93
2023-03-22T01:38:28.094Z,8.96
2023-03-22T01:40:54.620Z,9.00
2023-03-22T01:43:21.407Z,8.83
2023-03-22T01:45:49.829Z,8.98
2023-03-22T01:48:30.041Z,9.12
2023-03-22T01:51:00.358Z,9.10
2023-03-22T01:53:27.027Z,9.14
2023-03-22T01:55:57.540Z,9.18
2023-03-22T01:58:24.570Z,8.97
2023-03-22T02:00:52.868Z,9.28
2023-03-22T02:03:27.264Z,8.88
2023-03-22T02:05:54.789Z,9.16
2023-03-22T02:08:21.368Z,9.23
2023-03-22T02:10:48.206Z,8.95
2023-03-22T02:13:28.691Z,9.23
2023-03-22T02:16:04.201Z,9.35
2023-03-22T02:18:33.915Z,9.25
2023-03-22T02:21:25.346Z,9.23
2023-03-22T02:23:54.620Z,9.27
2023-03-22T02:27:00.509Z,8.98
2023-03-22T02:29:37.081Z,9.36
2023-03-22T02:32:37.167Z,9.39
2023-03-22T02:35:09.927Z,9.35
2023-03-22T02:38:02.291Z,9.03
2023-03-22T02:40:43.193Z,9.44
2023-03-22T02:43:18.401Z,9.21
2023-03-22T02:45:57.061Z,8.96
2023-03-22T02:48:42.295Z,9.33
2023-03-22T02:51:18.891Z,9.33
2023-03-22T02:53:55.356Z,9.27
2023-03-22T02:56:27.543Z,9.38
2023-03-22T02:58:58.266Z,9.30
2023-03-22T03:01:38.730Z,9.40
2023-03-22T03:04:10.809Z,9.40
2023-03-22T03:06:42.704Z,9.00
2023-03-22T03:09:09.690Z,9.48
2023-03-22T03:11:36.245Z,9.61
2023-03-22T03:14:02.790Z,9.38
2023-03-22T03:16:32.458Z,9.58
2023-03-22T03:19:27.950Z,9.47
2023-03-22T03:22:17.490Z,9.59
2023-03-22T03:24:59.047Z,9.59
2023-03-22T03:27:50.893Z,9.47
2023-03-22T03:30:30.617Z,9.31
2023-03-22T03:33:05.094Z,9.40
2023-03-22T03:35:37.723Z,9.30
2023-03-22T03:38:09.783Z,9.17
2023-03-22T03:40:47.283Z,9.18
2023-03-22T03:43:15.136Z,9.25
2023-03-22T03:45:41.861Z,9.37
2023-03-22T03:48:18.226Z,9.34
2023-03-22T03:50:45.337Z,9.25
2023-03-22T03:53:11.778Z,9.22
2023-03-22T03:55:38.489Z,9.21
2023-03-22T03:58:04.985Z,8.97
2023-03-22T04:00:31.511Z,9.23
2023-03-22T04:02:57.975Z,8.97
2023-03-22T04:05:24.503Z,9.25
2023-03-22T04:07:51.214Z,9.23
2023-03-22T04:10:17.788Z,9.21
2023-03-22T04:12:44.415Z,9.04
2023-03-22T04:15:11.739Z,9.12
2023-03-22T04:17:39.412Z,9.23
2023-03-22T04:20:08.219Z,9.25
2023-03-22T04:22:34.866Z,9.39
2023-03-22T04:25:01.640Z,9.34
2023-03-22T04:27:28.347Z,9.31
2023-03-22T04:29:54.940Z,9.28
2023-03-22T04:32:22.811Z,9.34
2023-03-22T04:34:50.445Z,9.27
2023-03-22T04:37:17.893Z,9.33
2023-03-22T04:39:45.185Z,9.30
2023-03-22T04:42:12.192Z,9.07
2023-03-22T04:44:38.721Z,9.24
2023-03-22T04:47:05.431Z,9.30
2023-03-22T04:49:32.163Z,9.22
2023-03-22T04:51:58.730Z,9.10
2023-03-22T04:54:25.275Z,9.28
2023-03-22T04:56:51.937Z,9.34
2023-03-22T04:59:19.573Z,9.29
2023-03-22T05:01:47.251Z,8.89
2023-03-22T05:04:14.530Z,9.22
2023-03-22T05:06:41.075Z,9.03
2023-03-22T05:09:08.239Z,9.03
2023-03-22T05:11:35.307Z,9.09
2023-03-22T05:14:02.552Z,9.19
2023-03-22T05:16:29.082Z,9.24
2023-03-22T05:18:55.514Z,9.27
2023-03-22T05:21:24.565Z,9.34
2023-03-22T05:23:51.661Z,9.37
2023-03-22T05:26:18.308Z,9.19
2023-03-22T05:28:44.845Z,9.29
2023-03-22T05:31:11.805Z,9.30
2023-03-22T05:33:38.567Z,9.23
2023-03-22T05:36:05.307Z,9.27
2023-03-22T05:38:31.885Z,9.02
2023-03-22T05:40:58.408Z,9.35
2023-03-22T05:43:24.933Z,9.27
2023-03-22T05:45:51.456Z,9.27
2023-03-22T05:48:17.981Z,9.27
2023-03-22T05:50:44.663Z,9.25
2023-03-22T05:53:11.123Z,9.30
2023-03-22T05:55:38.158Z,9.24
2023-03-22T05:58:05.293Z,9.12
2023-03-22T06:00:32.020Z,9.24
2023-03-22T06:02:59.720Z,8.87
2023-03-22T06:05:26.348Z,8.89
2023-03-22T06:07:52.981Z,9.29
2023-03-22T06:10:19.588Z,9.07
2023-03-22T06:12:46.081Z,9.38
2023-03-22T06:15:12.679Z,9.37
2023-03-22T06:17:39.611Z,9.32
2023-03-22T06:20:06.770Z,9.41
2023-03-22T06:22:33.270Z,9.09
2023-03-22T06:24:59.801Z,9.34
2023-03-22T06:27:26.279Z,9.42
2023-03-22T06:29:52.730Z,9.42
2023-03-22T06:32:19.593Z,9.44
2023-03-22T06:34:46.165Z,9.09
2023-03-22T06:37:12.840Z,9.37
2023-03-22T06:39:39.496Z,9.41
2023-03-22T06:42:06.111Z,9.10
2023-03-22T06:44:32.679Z,9.05
2023-03-22T06:46:59.340Z,9.46
2023-03-22T06:49:26.114Z,9.39
2023-03-22T06:51:52.808Z,9.42
2023-03-22T06:54:19.622Z,9.44
2023-03-22T06:56:46.239Z,9.47
2023-03-22T06:59:12.712Z,9.15
2023-03-22T07:01:39.748Z,9.41
2023-03-22T07:04:06.373Z,9.53
2023-03-22T07:06:32.979Z,9.53
2023-03-22T07:08:59.488Z,9.61
2023-03-22T07:11:25.941Z,9.65
2023-03-22T07:13:55.560Z,9.57
2023-03-22T07:16:22.860Z,9.78
2023-03-22T07:18:49.482Z,9.49
2023-03-22T07:21:16.091Z,9.79
2023-03-22T07:23:42.766Z,9.46
2023-03-22T07:26:09.530Z,9.53
2023-03-22T07:28:36.023Z,9.79
2023-03-22T07:31:05.417Z,9.73
2023-03-22T07:33:32.077Z,9.41
2023-03-22T07:35:58.791Z,9.73
2023-03-22T07:38:25.454Z,9.51
2023-03-22T07:40:53.445Z,9.90
2023-03-22T07:43:20.266Z,9.93
2023-03-22T07:45:49.109Z,10.05
2023-03-22T07:48:15.717Z,10.06
2023-03-22T07:50:42.346Z,10.04
2023-03-22T07:53:09.559Z,10.08
2023-03-22T07:55:37.116Z,10.13
2023-03-22T07:58:04.007Z,10.17
2023-03-22T08:00:30.582Z,9.97
2023-03-22T08:02:57.098Z,10.05
2023-03-22T08:05:24.195Z,10.18
2023-03-22T08:07:50.678Z,10.23
2023-03-22T08:10:17.411Z,10.24
2023-03-22T08:12:44.405Z,9.79
2023-03-22T08:15:11.529Z,10.13
2023-03-22T08:17:38.853Z,10.16
2023-03-22T08:20:06.483Z,9.91
2023-03-22T08:22:32.965Z,10.08
2023-03-22T08:24:59.410Z,10.28
2023-03-22T08:27:25.898Z,10.33
2023-03-22T08:29:52.371Z,10.44
2023-03-22T08:32:19.161Z,10.33
2023-03-22T08:34:45.940Z,10.14
2023-03-22T08:37:13.398Z,10.30
2023-03-22T08:39:40.112Z,10.31
2023-03-22T08:42:06.669Z,10.27
2023-03-22T08:44:33.148Z,10.12
2023-03-22T08:47:01.144Z,10.33
2023-03-22T08:49:28.960Z,9.95
2023-03-22T08:51:55.460Z,10.38
2023-03-22T08:54:22.063Z,9.95
2023-03-22T08:56:48.800Z,9.89
2023-03-22T08:59:15.350Z,10.32
2023-03-22T09:01:42.434Z,10.21
2023-03-22T09:04:10.635Z,10.30
2023-03-22T09:06:37.488Z,9.79
2023-03-22T09:09:04.115Z,10.14
2023-03-22T09:11:30.589Z,9.82
2023-03-22T09:13:57.039Z,10.18
2023-03-22T09:16:23.585Z,10.16
2023-03-22T09:18:50.056Z,10.17
2023-03-22T09:21:16.857Z,10.10
2023-03-22T09:23:43.447Z,9.77
2023-03-22T09:26:09.962Z,10.09
2023-03-22T09:28:36.716Z,10.06
2023-03-22T09:31:08.544Z,9.68
2023-03-22T09:33:36.150Z,9.94
2023-03-22T09:36:03.094Z,9.90
2023-03-22T09:38:29.660Z,9.93
2023-03-22T09:41:00.536Z,9.71
2023-03-22T09:43:34.376Z,9.79
2023-03-22T09:46:03.297Z,9.91
2023-03-22T09:48:39.405Z,9.45
2023-03-22T09:51:16.017Z,9.78
2023-03-22T09:53:42.764Z,9.84
2023-03-22T09:56:27.504Z,9.61
2023-03-22T09:59:04.922Z,9.85
2023-03-22T10:01:38.932Z,9.85
2023-03-22T10:04:21.053Z,9.91
2023-03-22T10:07:01.796Z,9.52
2023-03-22T10:09:53.460Z,9.88
2023-03-22T10:12:43.345Z,9.90
2023-03-22T10:15:19.532Z,9.92
2023-03-22T10:17:52.573Z,9.95
2023-03-22T10:20:31.480Z,9.92
2023-03-22T10:23:01.028Z,9.94
2023-03-22T10:25:37.073Z,9.91
2023-03-22T10:28:26.937Z,9.86
2023-03-22T10:30:56.410Z,9.37
2023-03-22T10:33:49.933Z,9.89
2023-03-22T10:36:19.795Z,10.05
2023-03-22T10:38:49.943Z,10.07
2023-03-22T10:41:18.675Z,10.06
2023-03-22T10:43:50.207Z,10.12
2023-03-22T10:46:21.009Z,10.27
2023-03-22T10:48:54.792Z,10.25
2023-03-22T10:51:29.400Z,10.24
2023-03-22T10:53:56.724Z,10.33
2023-03-22T10:56:23.239Z,10.17
2023-03-22T10:58:55.106Z,10.34
2023-03-22T11:01:28.189Z,10.32
2023-03-22T11:04:09.757Z,10.30
2023-03-22T11:06:56.294Z,9.98
2023-03-22T11:09:24.624Z,10.36
2023-03-22T11:11:57.016Z,9.95
2023-03-22T11:14:34.718Z,10.36
2023-03-22T11:17:07.389Z,10.48
2023-03-22T11:19:40.334Z,10.08
2023-03-22T11:22:38.423Z,10.42
2023-03-22T11:25:20.748Z,10.50
2023-03-22T11:27:57.086Z,10.60
2023-03-22T11:30:28.848Z,10.66
2023-03-22T11:33:02.639Z,10.57
2023-03-22T11:35:30.872Z,10.56
2023-03-22T11:37:58.031Z,10.71
2023-03-22T11:40:34.281Z,10.42
2023-03-22T11:43:20.349Z,10.56
2023-03-22T11:45:50.485Z,10.69
2023-03-22T11:48:26.341Z,10.47
2023-03-22T11:50:55.806Z,10.44
2023-03-22T11:53:27.902Z,10.71
2023-03-22T11:55:56.964Z,10.75
2023-03-22T11:58:29.876Z,10.71
2023-03-22T12:01:00.612Z,10.84
2023-03-22T12:03:31.281Z,10.76
2023-03-22T12:06:01.491Z,10.62
2023-03-22T12:08:42.664Z,10.92
2023-03-22T12:11:17.713Z,10.63
2023-03-22T12:13:53.526Z,10.79
2023-03-22T12:16:29.295Z,10.93
2023-03-22T12:19:23.825Z,10.96
2023-03-22T12:21:51.495Z,10.87
2023-03-22T12:24:30.724Z,10.85
2023-03-22T12:27:10.606Z,10.93
2023-03-22T12:29:39.689Z,10.95
2023-03-22T12:32:13.262Z,11.00
2023-03-22T12:34:44.751Z,11.02
2023-03-22T12:37:20.778Z,11.06
2023-03-22T12:39:53.880Z,11.05
2023-03-22T12:43:02.245Z,11.03
2023-03-22T12:45:33.737Z,11.04
2023-03-22T12:48:04.008Z,10.74
2023-03-22T12:50:42.419Z,11.03
2023-03-22T12:53:15.140Z,10.70
2023-03-22T12:55:44.519Z,11.09
2023-03-22T12:58:14.730Z,10.83
2023-03-22T13:00:44.215Z,11.10
2023-03-22T13:03:16.927Z,11.05
2023-03-22T13:05:49.640Z,11.16
2023-03-22T13:08:22.835Z,11.16
2023-03-22T13:11:03.487Z,10.84
2023-03-22T13:13:29.938Z,11.16
2023-03-22T13:15:56.344Z,11.18
2023-03-22T13:18:38.658Z,11.23
2023-03-22T13:21:20.554Z,11.01
2023-03-22T13:24:00.859Z,11.24
2023-03-22T13:26:42.397Z,11.23
2023-03-22T13:29:18.383Z,11.19
2023-03-22T13:31:56.243Z,11.22
2023-03-22T13:34:32.616Z,11.33
2023-03-22T13:37:00.127Z,11.18
2023-03-22T13:39:32.735Z,11.16
2023-03-22T13:42:14.423Z,11.05
2023-03-22T13:44:41.501Z,11.12
2023-03-22T13:47:29.829Z,11.14
2023-03-22T13:50:17.168Z,11.09
2023-03-22T13:52:56.735Z,11.02
2023-03-22T13:55:47.256Z,10.74
2023-03-22T13:58:52.755Z,10.93
2023-03-22T14:01:45.479Z,10.98
2023-03-22T14:04:16.663Z,11.05
2023-03-22T14:07:07.965Z,11.06
2023-03-22T14:09:49.545Z,11.07
2023-03-22T14:12:24.656Z,11.09
2023-03-22T14:14:56.918Z,11.02
2023-03-22T14:18:02.308Z,11.05
2023-03-22T14:20:35.452Z,11.09
